METAR Data
IDs: Format: Raw Decoded Include TAF

Data at: 0859 UTC 26 Jan 2020

KHYR 260853Z AUTO 27004KT 10SM OVC005 M03/M04 A2989 RMK AO2 SLP138 T10281044 58002 $
KHYR 260829Z AUTO VRB03KT 10SM OVC005 M03/M04 A2989 RMK AO2 T10281044 $
KHYR 260814Z AUTO VRB03KT 10SM OVC006 M02/M04 A2989 RMK AO2 T10221044 $
KHYR 260753Z AUTO 25006KT 10SM OVC005 M02/M04 A2990 RMK AO2 SLP140 T10221044 $
KHYR 260653Z AUTO 27006KT 10SM OVC008 M02/M04 A2989 RMK AO2 SLP139 T10171044 $
KHYR 260553Z AUTO 00000KT 10SM OVC007 M02/M04 A2989 RMK AO2 SLP138 T10171044 10000 21022 400111022 51002 $
KHYR 260453Z AUTO 00000KT 10SM OVC007 M02/M04 A2989 RMK AO2 SLP138 T10171039 $
KHYR 260353Z AUTO VRB03KT 10SM OVC008 M02/M04 A2989 RMK AO2 SLP137 T10171039 $
KHYR 260333Z AUTO 31004KT 10SM OVC009 M01/M04 A2989 RMK AO2 T10111039 $
KHYR 260253Z AUTO VRB03KT 10SM OVC011 M01/M04 A2989 RMK AO2 SLP137 T10111039 53003 $
KHYR 260153Z AUTO 00000KT 10SM OVC014 M01/M03 A2988 RMK AO2 SLP134 T10111033 $
KHYR 260131Z AUTO 00000KT 10SM OVC014 M01/M03 A2988 RMK AO2 T10111033 $
KHYR 260053Z AUTO 00000KT 10SM BKN015 OVC120 M02/M04 A2988 RMK AO2 SLP133 T10171044 $
KHYR 260039Z AUTO 00000KT 10SM BKN015 OVC120 M01/M03 A2988 RMK AO2 T10061033 $
KHYR 252353Z AUTO 00000KT 10SM OVC013 00/M03 A2988 RMK AO2 SLP132 60002 T00001033 10011 21006 53001 $
KHYR 252253Z AUTO 00000KT 10SM OVC010 00/M03 A2987 RMK AO2 SNE25 CIG 008V013 SLP129 P0000 T00001028 $
KHYR 252204Z AUTO 31004KT 3SM -SN OVC010 00/M03 A2987 RMK AO2 P0000 T00001028 $
KHYR 252153Z AUTO VRB03KT 2 1/2SM -SN BR OVC010 00/M02 A2987 RMK AO2 SNB20 SLP131 P0000 T00001022 $
KHYR 252143Z AUTO VRB03KT 2 1/2SM -SN BR BKN010 BKN015 OVC019 00/M02 A2988 RMK AO2 SNB20 P0000 T00001022 $
KHYR 252102Z AUTO VRB05KT 10SM OVC010 00/M03 A2987 RMK AO2 T00001028 $
KHYR 252053Z AUTO VRB04KT 10SM OVC009 00/M03 A2987 RMK AO2 SNE33 SLP131 P0002 60002 T00001028 55003 $
KHYR 251953Z AUTO VRB05KT 5SM -SN OVC007 00/M03 A2987 RMK AO2 SNB26 SLP130 P0000 T00001028 $
KHYR 251943Z AUTO VRB05KT 4SM -SN OVC007 00/M03 A2987 RMK AO2 SNB26 CIG 005V009 P0000 T00001028 $
KHYR 251905Z AUTO 34005KT 10SM OVC005 00/M02 A2987 RMK AO2 T00001022 $
KHYR 251853Z AUTO VRB03KT 10SM OVC006 00/M02 A2988 RMK AO2 SLP132 T00001022 $
KHYR 251753Z AUTO VRB05KT 10SM OVC009 01/M02 A2988 RMK AO2 SLP134 60000 T00111022 10011 20000 58002 $
KHYR 251740Z AUTO VRB03KT 10SM OVC009 01/M02 A2988 RMK AO2 T00111022 $
KHYR 251727Z AUTO 35003KT 10SM OVC010 01/M02 A2988 RMK AO2 T00061022 $
KHYR 251653Z AUTO 36004KT 10SM OVC008 01/M02 A2989 RMK AO2 SLP137 T00061022 $
KHYR 251600Z AUTO 36005KT 10SM OVC009 00/M02 A2989 RMK AO2 T00001022 $
KHYR 251553Z AUTO 35006KT 10SM OVC010 00/M02 A2989 RMK AO2 SNB10E21 SLP135 P0000 T00001022 $
KHYR 251520Z AUTO 36004KT 3SM -SN BR OVC011 00/M02 A2988 RMK AO2 SNB10 P0000 T00001022 $
KHYR 251503Z AUTO 36003KT 6SM BR BKN009 OVC015 00/M02 A2989 RMK AO2 CIG 008V014 T00001022 $
KHYR 251453Z AUTO 34003KT 6SM BR SCT009 OVC014 00/M02 A2989 RMK AO2 SNB15E24 SLP136 P0000 60000 T00001017 53006 $
KHYR 251438Z AUTO 35003KT 4SM BR OVC014 00/M02 A2989 RMK AO2 SNB15E24 P0000 T00001022 $
KHYR 251422Z AUTO 01005KT 2SM -SN BR OVC012 00/M02 A2989 RMK AO2 SNB15 P0000 T00001022 $
KHYR 251353Z AUTO 36006KT 9SM OVC009 00/M02 A2988 RMK AO2 SLP134 T00001022 $
KHYR 251333Z AUTO 36004KT 10SM OVC009 00/M02 A2988 RMK AO2 T00001022 $
KHYR 251253Z AUTO 35004KT 10SM OVC010 00/M02 A2987 RMK AO2 SNE17 SLP131 P0000 T00001022 $
KHYR 251228Z AUTO 36004KT 8SM OVC011 00/M02 A2987 RMK AO2 SNE17 P0000 T00001017 $
KHYR 251208Z AUTO 36004KT 3SM -SN BR BKN009 OVC015 00/M02 A2987 RMK AO2 P0000 T00001017 $
KHYR 251153Z AUTO 36005KT 3SM -SN BR BKN011 OVC016 00/M02 A2987 RMK AO2 SNB14 SLP129 P0000 60000 T00001017 10000 20000 55000 $
KHYR 251134Z AUTO 35005KT 4SM -SN BR OVC011 00/M02 A2987 RMK AO2 SNB14 P0000 T00001017 $
KHYR 251053Z AUTO 34005KT 10SM OVC009 00/M02 A2987 RMK AO2 SNE44 SLP129 P0000 T00001017 $
KHYR 251019Z AUTO 35003KT 4SM -SN BR OVC009 00/M02 A2987 RMK AO2 CIG 006V013 P0000 T00001017 $
KHYR 250953Z AUTO 35004KT 4SM -SN BR OVC011 00/M02 A2986 RMK AO2 UPB43E46SNE43B46 SLP127 P0000 T00001017 $
KHYR 250853Z AUTO 00000KT 3SM -SN BR OVC012 00/M02 A2987 RMK AO2 SNB15 SLP129 P0000 60000 T00001017 $
KHYR 250849Z AUTO 35003KT 3SM -SN BR BKN010 OVC017 00/M02 A2987 RMK AO2 SNB15 P0000 $
KHYR 250753Z AUTO 36003KT 2 1/2SM -SN BR OVC007 00/M02 A2988 RMK AO2 SLP132 P0000 T00001017
KHYR 250716Z AUTO 35003KT 2 1/2SM -SN BR OVC008 00/M02 A2988 RMK AO2 CIG 006V011 P0000 T00001017
KHYR 250638Z AUTO 36004KT 2SM -SN BR OVC010 00/M02 A2989 RMK AO2 SNB06 CIG 006V013 P0000 T00001017
KHYR 250628Z AUTO 36005KT 1 3/4SM -SN BR OVC008 00/M02 A2989 RMK AO2 SNB06 CIG 006V012 P0000 T00001017
KHYR 250553Z AUTO VRB05KT 10SM OVC006 00/M02 A2990 RMK AO2 SNE24 SLP139 P0000 60000 T00001017 10000 20000 400111022 58010
KHYR 250453Z AUTO 01006KT 5SM -SN BR OVC006 00/M02 A2991 RMK AO2 SLP142 P0000 T00001017
KHYR 250153Z AUTO 01007KT 10SM OVC008 00/M02 A2994 RMK AO2 SLP154 T00001022
KHYR 250053Z AUTO 02007KT 10SM OVC007 00/M02 A2995 RMK AO2 SLP159 T00001022
KHYR 242304Z AUTO 02006KT 10SM OVC009 00/M02 A2995 RMK AO2 CIG 007V011 T00001022
KHYR 242253Z AUTO 02009KT 10SM OVC011 00/M02 A2995 RMK AO2 SLP160 T00001022
KHYR 242153Z AUTO 02008KT 10SM OVC013 01/M02 A2995 RMK AO2 SNE11 SLP159 P0000 T00061022
KHYR 242148Z AUTO 02008KT 10SM OVC013 01/M02 A2995 RMK AO2 SNE11 P0000